Time;durP1;ratioP1;P1;durP2;ratioP2;P2;SDS_P1;SDS_P2;PMS_P1;PMS_P2;Temp;Humidity;BMP_temperature;BMP_pressure;BME280_temperature;BME280_humidity;BME280_pressure;Samples;Min_cycle;Max_cycle;Signal;HPM_P1;HPM_P2
2023/06/01 00:01:33;;;;;;;7.50;6.80;;;;;;;16.23;100.00;95004.69;5055882;28;20450;-81
2023/06/01 00:03:59;;;;;;;9.90;6.00;;;;;;;16.23;100.00;95006.50;5055181;28;20464;-81
2023/06/01 00:06:28;;;;;;;6.43;5.73;;;;;;;16.27;100.00;95011.31;5055161;28;20472;-80
2023/06/01 00:08:55;;;;;;;11.60;6.57;;;;;;;16.30;100.00;95005.69;5036444;28;20440;-81
2023/06/01 00:11:22;;;;;;;6.50;5.87;;;;;;;16.31;100.00;95006.50;5055207;28;20828;-80
2023/06/01 00:13:50;;;;;;;6.97;5.57;;;;;;;16.31;100.00;95012.63;5054966;28;20940;-81
2023/06/01 00:16:17;;;;;;;8.50;6.30;;;;;;;16.32;100.00;95008.16;5055035;28;20446;-81
2023/06/01 00:18:44;;;;;;;10.03;7.80;;;;;;;16.34;100.00;95006.19;5054852;28;20442;-81
2023/06/01 00:21:12;;;;;;;8.70;5.97;;;;;;;16.37;100.00;95011.16;5055069;28;20507;-81
2023/06/01 00:23:40;;;;;;;7.50;6.80;;;;;;;16.33;100.00;95015.13;5054993;28;20450;-81
2023/06/01 00:26:08;;;;;;;9.97;8.43;;;;;;;16.26;100.00;95012.28;5055079;28;20449;-80
2023/06/01 00:28:35;;;;;;;11.93;9.10;;;;;;;16.25;100.00;95017.75;5019764;28;20785;-80
2023/06/01 00:31:03;;;;;;;12.50;8.33;;;;;;;16.26;100.00;95014.13;5054558;28;21007;-81
2023/06/01 00:33:30;;;;;;;13.23;8.47;;;;;;;16.28;100.00;95012.13;5054687;28;20873;-80
2023/06/01 00:35:57;;;;;;;11.17;8.70;;;;;;;16.29;100.00;95008.50;5019169;28;20445;-81
2023/06/01 00:38:24;;;;;;;28.23;9.50;;;;;;;16.28;100.00;95018.25;5054913;28;20445;-81
2023/06/01 00:40:51;;;;;;;12.20;8.50;;;;;;;16.29;100.00;95008.50;5054461;28;21032;-81
2023/06/01 00:43:18;;;;;;;10.77;9.67;;;;;;;16.26;100.00;95014.13;5054687;28;20512;-80
2023/06/01 00:45:45;;;;;;;13.50;9.60;;;;;;;16.28;100.00;95018.25;5054822;28;20454;-81
2023/06/01 00:48:15;;;;;;;13.90;9.10;;;;;;;16.29;100.00;95014.63;5054417;28;20490;-81
2023/06/01 00:50:42;;;;;;;12.93;9.43;;;;;;;16.27;100.00;95011.31;5054479;28;20539;-81
2023/06/01 00:53:14;;;;;;;11.47;9.03;;;;;;;16.29;100.00;95011.97;5054362;28;20938;-81
2023/06/01 00:55:41;;;;;;;15.13;9.70;;;;;;;16.26;100.00;95011.47;5054303;28;20865;-80
2023/06/01 00:58:08;;;;;;;16.37;9.60;;;;;;;16.13;100.00;95011.91;5054308;28;20862;-81
2023/06/01 01:00:35;;;;;;;10.20;8.67;;;;;;;16.04;100.00;95011.06;5054165;28;20464;-81
2023/06/01 01:03:07;;;;;;;17.63;9.07;;;;;;;15.98;100.00;95006.41;5053901;28;20448;-80
2023/06/01 01:05:37;;;;;;;15.40;10.70;;;;;;;15.99;100.00;95007.25;5053673;28;20528;-80
2023/06/01 01:08:10;;;;;;;18.00;9.80;;;;;;;15.98;100.00;95001.13;5054284;28;20450;-81
2023/06/01 01:10:41;;;;;;;15.93;10.33;;;;;;;16.02;100.00;95002.47;5053981;28;20531;-81
2023/06/01 01:13:14;;;;;;;13.73;9.80;;;;;;;16.01;100.00;95006.09;5053892;28;20448;-80
2023/06/01 01:15:51;;;;;;;13.53;9.60;;;;;;;15.91;100.00;95010.69;5054325;28;20865;-80
2023/06/01 01:18:25;;;;;;;11.30;6.80;;;;;;;15.90;100.00;95013.47;5054115;28;20441;-80
2023/06/01 01:21:00;;;;;;;8.60;7.13;;;;;;;15.87;100.00;95009.34;5054218;28;20786;-81
2023/06/01 01:23:45;;;;;;;7.67;6.60;;;;;;;15.89;100.00;95015.28;5053523;28;20809;-81
2023/06/01 01:26:37;;;;;;;8.40;6.30;;;;;;;15.86;100.00;95012.97;5054013;28;20653;-80
2023/06/01 01:29:09;;;;;;;6.83;5.90;;;;;;;15.79;100.00;95023.38;5054131;28;20481;-81
2023/06/01 01:31:38;;;;;;;8.33;6.07;;;;;;;15.78;100.00;95016.41;5053454;28;20529;-80
2023/06/01 01:34:06;;;;;;;6.40;5.80;;;;;;;15.79;100.00;95014.59;5053455;28;20500;-80
2023/06/01 01:36:34;;;;;;;7.13;5.17;;;;;;;15.80;100.00;95018.91;5053462;28;20931;-80
2023/06/01 01:39:00;;;;;;;9.90;5.87;;;;;;;15.82;100.00;95021.38;5053635;28;20445;-80
2023/06/01 01:41:27;;;;;;;8.83;6.10;;;;;;;15.79;100.00;95012.78;5018600;28;20537;-80
2023/06/01 01:43:54;;;;;;;9.33;6.07;;;;;;;15.70;100.00;95023.50;5053616;28;20861;-80
2023/06/01 01:46:27;;;;;;;6.60;5.90;;;;;;;15.65;100.00;95017.84;5053262;28;20517;-80
2023/06/01 01:49:02;;;;;;;8.90;6.10;;;;;;;15.66;100.00;95027.44;5053106;28;20997;-80
2023/06/01 01:51:37;;;;;;;8.83;6.87;;;;;;;15.69;100.00;95022.66;5052994;28;20564;-80
2023/06/01 01:54:06;;;;;;;5.77;5.27;;;;;;;15.64;100.00;95018.84;5053921;28;20441;-80
2023/06/01 01:56:36;;;;;;;7.47;5.43;;;;;;;15.64;100.00;95018.84;5052966;28;20528;-79
2023/06/01 01:59:04;;;;;;;6.37;5.30;;;;;;;15.58;100.00;95024.72;5053130;28;20441;-80
2023/06/01 02:01:33;;;;;;;7.43;6.33;;;;;;;15.37;100.00;95031.22;5053340;28;20543;-80
2023/06/01 02:04:01;;;;;;;11.73;6.13;;;;;;;15.17;100.00;95024.47;5053174;28;20445;-80
2023/06/01 02:06:28;;;;;;;7.30;5.90;;;;;;;15.23;100.00;95031.78;5017615;28;20500;-80
2023/06/01 02:08:54;;;;;;;6.60;5.90;;;;;;;15.21;100.00;95027.63;5053143;28;20861;-80
2023/06/01 02:11:21;;;;;;;5.93;5.13;;;;;;;15.16;100.00;95036.03;5052791;28;20894;-80
2023/06/01 02:13:48;;;;;;;6.87;5.87;;;;;;;15.15;100.00;95029.91;5052957;28;20949;-80
2023/06/01 02:16:15;;;;;;;8.13;7.33;;;;;;;15.16;100.00;95030.75;5052357;28;20446;-80
2023/06/01 02:18:45;;;;;;;6.17;5.50;;;;;;;15.26;100.00;95030.63;5053411;28;20446;-80
2023/06/01 02:21:13;;;;;;;6.10;5.23;;;;;;;15.27;100.00;95027.84;5052930;28;20452;-80
2023/06/01 02:23:40;;;;;;;5.67;5.10;;;;;;;15.29;100.00;95032.97;5052712;28;20446;-80
2023/06/01 02:26:08;;;;;;;9.07;5.40;;;;;;;15.29;100.00;95027.69;5052721;28;20928;-80
2023/06/01 02:28:34;;;;;;;6.60;6.00;;;;;;;15.26;100.00;95028.00;5052686;28;20991;-80
2023/06/01 02:31:01;;;;;;;6.10;5.20;;;;;;;15.31;100.00;95029.19;5052676;28;20487;-80
2023/06/01 02:33:28;;;;;;;6.57;5.77;;;;;;;15.37;100.00;95028.56;5052915;28;21000;-80
2023/06/01 02:35:56;;;;;;;7.57;5.30;;;;;;;15.41;100.00;95029.91;5052295;28;20456;-80
2023/06/01 02:38:23;;;;;;;5.53;5.10;;;;;;;15.42;100.00;95028.09;5052376;28;20446;-80
2023/06/01 02:40:50;;;;;;;6.50;5.50;;;;;;;15.43;100.00;95032.41;5017192;28;20501;-80
2023/06/01 02:43:16;;;;;;;6.83;5.83;;;;;;;15.45;100.00;95036.56;5052059;28;20531;-80
2023/06/01 02:45:43;;;;;;;7.70;6.07;;;;;;;15.46;100.00;95032.91;5052385;28;20442;-80
2023/06/01 02:48:10;;;;;;;7.13;6.10;;;;;;;15.46;100.00;95038.22;5033615;28;20851;-80
2023/06/01 02:50:37;;;;;;;7.10;5.80;;;;;;;15.43;100.00;95040.34;5052141;28;20581;-80
2023/06/01 02:53:06;;;;;;;6.83;5.10;;;;;;;15.44;100.00;95042.00;5052160;28;20460;-80
2023/06/01 02:55:32;;;;;;;7.43;4.87;;;;;;;15.44;100.00;95039.34;5017123;28;20481;-80
2023/06/01 02:57:59;;;;;;;8.33;6.30;;;;;;;15.38;100.00;95040.81;5052234;28;20452;-80
2023/06/01 03:00:27;;;;;;;6.53;5.53;;;;;;;15.38;100.00;95035.53;5051891;28;20847;-80
2023/06/01 03:02:54;;;;;;;7.20;5.87;;;;;;;15.37;100.00;95033.03;5052032;28;20457;-80
2023/06/01 03:05:21;;;;;;;8.30;5.77;;;;;;;15.35;100.00;95030.56;5052147;28;20503;-81
2023/06/01 03:07:48;;;;;;;6.27;5.67;;;;;;;15.36;100.00;95032.22;5052260;28;20537;-80
2023/06/01 03:10:16;;;;;;;11.77;6.17;;;;;;;15.29;100.00;95031.16;5051866;28;20555;-80
2023/06/01 03:12:43;;;;;;;8.13;5.23;;;;;;;15.30;100.00;95040.75;5052181;28;20449;-80
2023/06/01 03:15:10;;;;;;;7.40;6.07;;;;;;;15.34;100.00;95042.13;5052113;28;20501;-81
2023/06/01 03:17:37;;;;;;;7.53;5.73;;;;;;;15.36;100.00;95042.78;5051777;28;20936;-80
2023/06/01 03:20:14;;;;;;;8.47;7.27;;;;;;;15.42;100.00;95047.44;5051750;28;20963;-80
2023/06/01 03:22:43;;;;;;;7.27;6.53;;;;;;;15.46;100.00;95043.50;5018174;28;20471;-80
2023/06/01 03:25:12;;;;;;;8.57;6.53;;;;;;;15.59;100.00;95044.91;5051656;28;20452;-80
2023/06/01 03:27:40;;;;;;;7.77;6.97;;;;;;;15.77;100.00;95037.75;5053746;28;20430;-80
2023/06/01 03:30:10;;;;;;;8.40;6.30;;;;;;;15.97;100.00;95041.81;5049955;28;20465;-80
2023/06/01 03:32:38;;;;;;;10.33;7.20;;;;;;;16.24;100.00;95042.56;5050415;28;20445;-80
2023/06/01 03:35:07;;;;;;;7.57;6.43;;;;;;;16.46;100.00;95047.25;5036146;28;21021;-80
2023/06/01 03:37:34;;;;;;;5.83;4.93;;;;;;;16.70;100.00;95039.38;5043413;28;20890;-81
2023/06/01 03:40:01;;;;;;;8.33;5.87;;;;;;;16.98;99.11;95044.38;5052387;28;20862;-80
2023/06/01 03:42:27;;;;;;;6.23;5.63;;;;;;;17.25;97.08;95049.34;5055410;28;20870;-80
2023/06/01 03:44:55;;;;;;;7.90;5.63;;;;;;;17.52;95.40;95045.50;5055949;28;20542;-80
2023/06/01 03:47:22;;;;;;;8.40;6.40;;;;;;;17.69;93.51;95050.81;5055466;28;20451;-80
2023/06/01 03:49:49;;;;;;;9.37;6.13;;;;;;;17.90;93.39;95045.75;5055346;28;20481;-81
2023/06/01 03:52:18;;;;;;;7.60;5.27;;;;;;;18.15;92.40;95054.47;5055481;28;20538;-81
2023/06/01 03:54:45;;;;;;;8.17;6.60;;;;;;;18.35;91.11;95061.03;5055758;28;20443;-81
2023/06/01 03:57:11;;;;;;;6.20;5.60;;;;;;;18.57;89.02;95051.47;5055371;28;20943;-81
2023/06/01 03:59:38;;;;;;;7.10;5.80;;;;;;;18.84;88.64;95058.97;5055136;28;21017;-80
2023/06/01 04:02:09;;;;;;;6.97;6.07;;;;;;;19.07;86.34;95061.59;5055649;28;20483;-81
2023/06/01 04:04:36;;;;;;;5.77;5.07;;;;;;;19.36;85.47;95068.84;5055496;28;20500;-81
2023/06/01 04:07:03;;;;;;;6.00;5.40;;;;;;;19.48;83.32;95066.59;5036750;28;20441;-81
2023/06/01 04:09:30;;;;;;;7.63;6.90;;;;;;;19.47;82.03;95080.94;5055173;28;20446;-80
2023/06/01 04:11:57;;;;;;;10.60;6.43;;;;;;;19.40;83.09;95072.00;5055383;28;20505;-81
2023/06/01 04:14:24;;;;;;;7.70;6.90;;;;;;;19.41;82.19;95082.47;5055074;28;20997;-81
2023/06/01 04:16:51;;;;;;;9.27;7.23;;;;;;;19.62;82.48;95075.66;5019855;28;20437;-81
2023/06/01 04:19:19;;;;;;;12.73;7.97;;;;;;;19.71;81.16;95077.25;5054902;28;20438;-80
2023/06/01 04:21:46;;;;;;;10.37;7.83;;;;;;;19.47;81.99;95075.59;5019884;28;20483;-82
2023/06/01 04:24:12;;;;;;;13.47;8.87;;;;;;;19.08;83.91;95075.72;5054801;28;20511;-81
2023/06/01 04:26:39;;;;;;;13.10;8.97;;;;;;;19.31;83.83;95076.56;5019716;28;20519;-81
2023/06/01 04:29:06;;;;;;;8.93;8.00;;;;;;;19.47;83.23;95080.94;5054853;28;20446;-81
2023/06/01 04:31:34;;;;;;;12.97;8.83;;;;;;;19.55;82.71;95077.38;5054921;28;20819;-81
2023/06/01 04:34:01;;;;;;;21.87;9.20;;;;;;;19.71;83.56;95072.75;5054982;28;20473;-81
2023/06/01 04:36:30;;;;;;;16.90;10.10;;;;;;;19.95;82.55;95076.16;5054516;28;20508;-80
2023/06/01 04:38:57;;;;;;;16.23;10.33;;;;;;;20.09;81.02;95086.81;5054651;28;20485;-81
2023/06/01 04:41:24;;;;;;;16.33;9.70;;;;;;;20.25;80.72;95087.66;5054392;28;20504;-81
2023/06/01 04:43:52;;;;;;;18.43;10.70;;;;;;;20.53;80.27;95075.34;5054512;28;20985;-81
2023/06/01 04:46:20;;;;;;;14.27;9.30;;;;;;;20.71;78.30;95081.09;5054589;28;20534;-81
2023/06/01 04:48:48;;;;;;;16.20;8.60;;;;;;;20.84;78.40;95085.75;5054619;28;20448;-81
2023/06/01 04:51:19;;;;;;;12.27;9.90;;;;;;;21.16;77.02;95089.78;5054454;28;20552;-81
2023/06/01 04:53:49;;;;;;;14.40;8.47;;;;;;;21.37;76.60;95091.63;5054504;28;20447;-81
2023/06/01 04:56:18;;;;;;;12.10;8.67;;;;;;;21.61;75.20;95093.91;5054740;28;20944;-81
2023/06/01 04:58:46;;;;;;;22.43;7.97;;;;;;;21.54;75.85;95101.06;5054511;28;20547;-81
2023/06/01 05:01:15;;;;;;;10.67;9.30;;;;;;;21.64;75.42;95096.19;5054352;28;20954;-81
2023/06/01 05:03:42;;;;;;;10.70;8.00;;;;;;;21.84;75.71;95096.34;5054106;28;20441;-81
2023/06/01 05:06:09;;;;;;;11.27;8.97;;;;;;;21.95;73.94;95095.81;5054168;28;20442;-81
2023/06/01 05:08:36;;;;;;;12.87;9.10;;;;;;;22.06;73.87;95102.50;5054433;28;20458;-81
2023/06/01 05:11:04;;;;;;;11.50;9.13;;;;;;;22.00;73.96;95107.78;5053866;28;20984;-81
2023/06/01 05:13:31;;;;;;;15.30;8.80;;;;;;;22.00;74.42;95108.63;5054040;28;20451;-81
2023/06/01 05:15:58;;;;;;;9.67;8.67;;;;;;;22.01;75.19;95104.09;5018868;28;20443;-81
2023/06/01 05:18:24;;;;;;;11.40;8.90;;;;;;;22.00;74.51;95100.59;5054204;28;20849;-81
2023/06/01 05:20:51;;;;;;;17.90;9.40;;;;;;;22.02;74.67;95106.56;5053861;28;20931;-81
2023/06/01 05:23:18;;;;;;;15.73;9.33;;;;;;;21.99;74.62;95109.63;5053762;28;20583;-81
2023/06/01 05:25:45;;;;;;;11.73;9.50;;;;;;;22.19;73.15;95109.78;5053997;28;20864;-81
2023/06/01 05:28:13;;;;;;;9.50;8.50;;;;;;;22.40;72.51;95092.84;5053879;28;20451;-81
2023/06/01 05:30:40;;;;;;;18.17;9.47;;;;;;;22.63;71.28;95098.72;5053940;28;20520;-81
2023/06/01 05:33:06;;;;;;;11.60;9.60;;;;;;;22.81;71.11;95101.69;5053569;28;20436;-81
2023/06/01 05:35:33;;;;;;;12.43;9.80;;;;;;;22.97;70.70;95100.53;5018377;28;20447;-81
2023/06/01 05:38:00;;;;;;;10.83;9.07;;;;;;;23.09;70.15;95104.25;5035028;28;20452;-81
2023/06/01 05:40:27;;;;;;;12.10;9.13;;;;;;;23.16;68.63;95107.78;5053382;28;20927;-81
2023/06/01 05:42:53;;;;;;;14.17;9.00;;;;;;;23.30;69.22;95105.13;5053234;28;20461;-81
2023/06/01 05:45:22;;;;;;;12.80;10.73;;;;;;;23.64;68.85;95104.16;5053434;28;20506;-81
2023/06/01 05:47:48;;;;;;;10.53;9.40;;;;;;;23.94;67.63;95102.72;5053435;28;20805;-80
2023/06/01 05:50:15;;;;;;;16.70;11.10;;;;;;;23.92;66.97;95094.06;5052785;28;20445;-81
2023/06/01 05:52:42;;;;;;;16.43;10.43;;;;;;;24.16;67.21;95107.88;5053377;28;20857;-81
2023/06/01 05:55:09;;;;;;;13.50;10.60;;;;;;;24.45;65.44;95099.38;5053054;28;20457;-82
2023/06/01 05:57:36;;;;;;;12.83;10.33;;;;;;;24.51;65.08;95093.16;5053245;28;20841;-80
2023/06/01 06:00:07;;;;;;;13.83;10.80;;;;;;;24.29;65.57;95094.47;5018015;28;20503;-80
2023/06/01 06:02:35;;;;;;;14.30;9.80;;;;;;;24.36;66.90;95090.75;5052983;28;20458;-80
2023/06/01 06:05:03;;;;;;;13.37;10.50;;;;;;;24.53;66.51;95085.72;5053459;28;20442;-81
2023/06/01 06:07:30;;;;;;;18.40;11.23;;;;;;;24.83;65.06;95085.19;5018337;28;20445;-81
2023/06/01 06:09:57;;;;;;;13.37;9.90;;;;;;;25.15;64.04;95084.25;5034167;28;20442;-82
2023/06/01 06:12:24;;;;;;;14.40;11.03;;;;;;;25.49;63.45;95084.88;5052812;28;20987;-82
2023/06/01 06:14:50;;;;;;;15.87;12.00;;;;;;;25.80;63.25;95076.81;5054126;28;20453;-79
2023/06/01 06:17:17;;;;;;;12.77;10.20;;;;;;;25.84;62.20;95082.56;5052830;28;20442;-80
2023/06/01 06:19:47;;;;;;;17.83;10.73;;;;;;;26.01;61.60;95082.81;5018313;28;20529;-83
2023/06/01 06:22:14;;;;;;;11.33;9.53;;;;;;;26.02;61.61;95084.47;5052883;28;20998;-80
2023/06/01 06:24:41;;;;;;;13.37;11.60;;;;;;;26.00;61.52;95082.00;5052697;28;20510;-82
2023/06/01 06:27:09;;;;;;;18.23;11.87;;;;;;;25.73;62.09;95078.69;5052684;28;20449;-82
2023/06/01 06:29:36;;;;;;;18.90;11.13;;;;;;;25.62;63.13;95074.00;5017492;28;20855;-82
2023/06/01 06:32:03;;;;;;;14.60;10.97;;;;;;;25.64;62.32;95080.81;5052947;28;20572;-81
2023/06/01 06:34:35;;;;;;;16.13;10.23;;;;;;;25.89;64.36;95086.22;5052762;28;20808;-82
2023/06/01 06:37:04;;;;;;;27.27;12.10;;;;;;;25.75;62.74;95078.50;5052406;28;20450;-82
2023/06/01 06:39:30;;;;;;;20.70;10.90;;;;;;;25.43;63.75;95083.84;5052671;28;20503;-81
2023/06/01 06:41:57;;;;;;;14.10;11.07;;;;;;;25.22;64.71;95078.84;5017585;28;20434;-81
2023/06/01 06:44:24;;;;;;;13.03;10.87;;;;;;;24.41;66.31;95082.06;5017177;28;20531;-81
2023/06/01 06:46:51;;;;;;;16.33;11.77;;;;;;;24.07;67.85;95075.91;5052254;28;20441;-81
2023/06/01 06:49:18;;;;;;;16.57;11.37;;;;;;;23.73;70.20;95070.81;5052253;28;20448;-81
2023/06/01 06:51:45;;;;;;;11.80;10.30;;;;;;;23.87;71.39;95066.25;5052576;28;20533;-81
2023/06/01 06:54:14;;;;;;;16.50;10.83;;;;;;;23.89;71.62;95069.53;5052243;28;20444;-81
2023/06/01 06:56:40;;;;;;;15.57;12.70;;;;;;;23.87;72.45;95063.56;5052104;28;20446;-82
2023/06/01 06:59:07;;;;;;;12.63;11.10;;;;;;;24.11;71.47;95070.97;5017264;28;20449;-83
2023/06/01 07:01:35;;;;;;;16.90;10.80;;;;;;;24.37;70.39;95070.09;5052447;28;20456;-81
2023/06/01 07:04:02;;;;;;;13.60;10.13;;;;;;;24.47;69.67;95072.34;5052145;28;20445;-82
2023/06/01 07:06:29;;;;;;;14.97;10.13;;;;;;;24.45;68.19;95072.56;5052362;28;20473;-82
2023/06/01 07:08:56;;;;;;;13.73;10.10;;;;;;;24.50;68.99;95067.38;5051855;28;20437;-82
2023/06/01 07:11:26;;;;;;;12.53;8.80;;;;;;;24.66;69.52;95064.22;5051987;28;20445;-81
2023/06/01 07:13:53;;;;;;;12.30;8.93;;;;;;;24.86;69.16;95061.44;5052360;28;20515;-82
2023/06/01 07:16:20;;;;;;;15.10;10.40;;;;;;;24.92;68.86;95057.09;5051821;28;20853;-82
2023/06/01 07:18:47;;;;;;;13.63;9.53;;;;;;;25.01;68.71;95064.69;5051941;28;20818;-81
2023/06/01 07:21:13;;;;;;;19.37;11.53;;;;;;;24.58;68.52;95058.28;5052103;28;20929;-81
2023/06/01 07:23:43;;;;;;;16.20;10.13;;;;;;;24.61;69.92;95061.38;5052251;28;20464;-82
2023/06/01 07:26:10;;;;;;;13.70;10.30;;;;;;;24.70;69.38;95057.38;5051859;28;20448;-81
2023/06/01 07:28:38;;;;;;;14.20;9.80;;;;;;;24.74;67.03;95062.34;5052150;28;20449;-82
2023/06/01 07:31:05;;;;;;;14.27;10.00;;;;;;;24.70;68.38;95060.06;5051798;28;20454;-82
2023/06/01 07:33:33;;;;;;;13.23;9.67;;;;;;;24.59;68.30;95058.06;5051831;28;20618;-82
2023/06/01 07:36:00;;;;;;;17.53;9.70;;;;;;;24.30;68.60;95053.22;5051890;28;20470;-82
2023/06/01 07:38:27;;;;;;;12.63;9.40;;;;;;;24.43;70.33;95050.47;5051861;28;20474;-81
2023/06/01 07:40:54;;;;;;;10.00;8.70;;;;;;;24.59;71.40;95049.19;5016694;28;20517;-81
2023/06/01 07:43:20;;;;;;;13.33;9.90;;;;;;;24.71;68.59;95044.78;5051981;28;20485;-81
2023/06/01 07:45:49;;;;;;;17.10;9.00;;;;;;;25.06;67.01;95044.44;5052056;28;20495;-81
2023/06/01 07:48:16;;;;;;;14.53;8.70;;;;;;;25.38;67.32;95043.38;5051684;28;20441;-81
2023/06/01 07:50:43;;;;;;;15.17;10.03;;;;;;;24.75;68.45;95035.28;5051669;28;20454;-81
2023/06/01 07:53:10;;;;;;;15.70;9.83;;;;;;;24.32;69.45;95035.06;5051690;28;20473;-81
2023/06/01 07:55:36;;;;;;;17.47;9.30;;;;;;;24.46;70.38;95031.28;5051794;28;20860;-81
2023/06/01 07:58:04;;;;;;;18.43;8.63;;;;;;;24.46;71.51;95033.94;5051822;28;20826;-81
2023/06/01 08:00:31;;;;;;;9.93;8.93;;;;;;;24.38;66.86;95039.56;5051600;28;20783;-81
2023/06/01 08:03:05;;;;;;;12.33;8.23;;;;;;;24.37;67.99;95044.09;5051470;28;20455;-81
2023/06/01 08:05:32;;;;;;;12.13;7.83;;;;;;;24.78;67.08;95039.38;5051895;28;20491;-81
2023/06/01 08:07:58;;;;;;;17.17;9.23;;;;;;;24.86;65.56;95036.44;5051610;28;20932;-81
2023/06/01 08:10:25;;;;;;;13.33;8.63;;;;;;;24.85;67.16;95041.00;5051609;28;21047;-81
2023/06/01 08:12:55;;;;;;;13.80;9.20;;;;;;;24.99;65.38;95036.41;5052287;28;20534;-81
2023/06/01 08:15:23;;;;;;;9.60;8.60;;;;;;;25.11;65.49;95023.13;5055521;28;20805;-81
2023/06/01 08:17:50;;;;;;;12.30;8.50;;;;;;;25.11;66.25;95028.50;5055571;28;20456;-81
2023/06/01 08:20:21;;;;;;;11.37;8.67;;;;;;;25.20;65.76;95019.97;5055148;28;20444;-81
2023/06/01 08:22:48;;;;;;;16.53;8.97;;;;;;;25.44;66.64;95028.25;5055336;28;20521;-81
2023/06/01 08:25:15;;;;;;;13.93;8.30;;;;;;;25.73;67.03;95022.25;5055311;28;20811;-81
2023/06/01 08:27:43;;;;;;;20.53;12.60;;;;;;;25.86;64.93;95018.63;5055232;28;20453;-81
2023/06/01 08:30:10;;;;;;;22.20;14.67;;;;;;;25.82;65.01;95006.69;5054807;28;20457;-80
2023/06/01 08:32:37;;;;;;;21.27;15.33;;;;;;;25.78;66.80;95003.63;5019767;28;20490;-81
2023/06/01 08:35:06;;;;;;;33.17;16.77;;;;;;;25.86;66.47;95007.88;5055039;28;20952;-81
2023/06/01 08:37:34;;;;;;;28.23;15.97;;;;;;;26.03;65.25;95000.06;5019880;28;20552;-81
2023/06/01 08:40:03;;;;;;;25.07;14.73;;;;;;;26.16;64.08;94999.91;5054794;28;20445;-80
2023/06/01 08:42:35;;;;;;;18.37;15.60;;;;;;;26.15;64.07;95003.66;5055001;28;20781;-80
2023/06/01 08:45:06;;;;;;;26.07;15.07;;;;;;;26.06;66.66;94999.63;5054550;28;20473;-80
2023/06/01 08:47:33;;;;;;;19.80;14.63;;;;;;;25.88;66.30;95006.63;5036261;28;20499;-81
2023/06/01 08:50:01;;;;;;;31.17;16.00;;;;;;;25.71;66.54;94997.47;5055030;28;20479;-80
2023/06/01 08:52:31;;;;;;;28.63;13.27;;;;;;;25.70;66.96;94990.44;5019472;28;20484;-81
2023/06/01 08:55:01;;;;;;;22.03;14.43;;;;;;;25.55;67.30;94990.75;5055030;28;20446;-81
2023/06/01 08:57:29;;;;;;;26.53;15.83;;;;;;;25.54;67.25;94982.91;5054467;28;20456;-81
2023/06/01 08:59:56;;;;;;;26.03;16.40;;;;;;;25.57;67.02;94985.16;5054445;28;20532;-81
2023/06/01 09:02:23;;;;;;;29.73;16.63;;;;;;;25.57;67.43;94980.63;5054433;28;20494;-80
2023/06/01 09:04:50;;;;;;;24.07;14.80;;;;;;;25.59;66.76;94975.84;5054746;28;20441;-81
2023/06/01 09:07:18;;;;;;;29.73;14.83;;;;;;;25.75;67.40;94976.34;5054256;28;20800;-81
2023/06/01 09:09:45;;;;;;;23.37;15.90;;;;;;;25.89;64.82;94978.69;5054252;28;20537;-81
2023/06/01 09:12:23;;;;;;;29.67;18.23;;;;;;;25.85;64.17;94977.47;5053965;28;20489;-80
2023/06/01 09:14:50;;;;;;;18.60;15.00;;;;;;;25.80;65.17;94969.25;5054536;28;20459;-81
2023/06/01 09:17:23;;;;;;;23.27;18.00;;;;;;;25.89;65.98;94973.28;5053843;28;20446;-81
2023/06/01 09:19:51;;;;;;;28.40;17.07;;;;;;;26.04;65.45;94974.81;5054007;28;20441;-81
2023/06/01 09:22:18;;;;;;;24.17;16.83;;;;;;;26.23;63.39;94976.44;5054199;28;20442;-81
2023/06/01 09:24:56;;;;;;;20.00;16.00;;;;;;;26.25;63.58;94964.41;5052609;28;20453;-81
2023/06/01 09:27:25;;;;;;;24.13;15.90;;;;;;;26.23;63.34;94974.56;5054106;28;20548;-81
2023/06/01 09:29:55;;;;;;;26.67;15.50;;;;;;;26.08;64.38;94973.31;5053986;28;20453;-81
2023/06/01 09:32:22;;;;;;;32.00;16.17;;;;;;;25.89;64.37;94967.09;5053821;28;20481;-81
2023/06/01 09:34:49;;;;;;;27.30;17.23;;;;;;;25.56;66.27;94954.78;5053919;28;20454;-81
2023/06/01 09:37:16;;;;;;;25.33;17.00;;;;;;;25.56;65.17;94954.78;5053692;28;20458;-81
2023/06/01 09:39:43;;;;;;;21.13;16.30;;;;;;;25.47;66.24;94952.59;5053762;28;20469;-81
2023/06/01 09:42:10;;;;;;;25.60;17.10;;;;;;;25.39;66.17;94948.31;5053667;28;20852;-81
2023/06/01 09:44:40;;;;;;;24.67;16.43;;;;;;;25.30;66.28;94955.00;5053579;28;20477;-81
2023/06/01 09:47:10;;;;;;;21.40;14.87;;;;;;;25.22;63.48;94955.28;5053576;28;20536;-81
2023/06/01 09:49:39;;;;;;;32.53;13.23;;;;;;;25.24;65.82;94939.78;5053213;28;20511;-81
2023/06/01 09:52:14;;;;;;;21.40;15.53;;;;;;;25.21;64.01;94943.72;5053557;28;20488;-81
2023/06/01 09:54:44;;;;;;;19.53;14.33;;;;;;;25.24;64.88;94942.47;5053373;28;20437;-81
2023/06/01 09:57:12;;;;;;;24.30;14.30;;;;;;;25.34;64.82;94932.03;5053371;28;20446;-81
2023/06/01 09:59:42;;;;;;;23.70;13.37;;;;;;;25.48;64.71;94932.75;5053274;28;20445;-81
2023/06/01 10:02:13;;;;;;;20.40;14.40;;;;;;;25.57;63.91;94931.41;5053025;28;20959;-81
2023/06/01 10:04:42;;;;;;;17.87;13.27;;;;;;;25.62;63.07;94923.50;5053249;28;20492;-81
2023/06/01 10:07:10;;;;;;;18.73;12.73;;;;;;;25.67;62.68;94926.38;5053262;28;20437;-81
2023/06/01 10:09:40;;;;;;;17.10;13.33;;;;;;;25.63;62.10;94917.09;5053048;28;20450;-81
2023/06/01 10:12:09;;;;;;;18.23;11.40;;;;;;;25.70;61.67;94907.09;5053418;28;20477;-81
2023/06/01 10:14:38;;;;;;;16.27;13.47;;;;;;;25.70;62.89;94917.03;5052681;28;20486;-80
2023/06/01 10:17:07;;;;;;;17.00;11.90;;;;;;;25.59;64.06;94905.97;5053142;28;20532;-81
2023/06/01 10:19:37;;;;;;;16.10;11.47;;;;;;;25.62;62.50;94918.13;5053308;28;20446;-81
2023/06/01 10:22:05;;;;;;;11.40;8.90;;;;;;;25.63;62.25;94914.41;5052916;28;20902;-80
2023/06/01 10:24:32;;;;;;;14.83;10.27;;;;;;;25.56;59.51;94919.03;5017432;28;20499;-80
2023/06/01 10:27:06;;;;;;;12.17;9.43;;;;;;;25.46;61.75;94914.16;5052886;28;20536;-81
2023/06/01 10:29:34;;;;;;;14.40;10.67;;;;;;;25.47;60.50;94906.94;5053008;28;20994;-80
2023/06/01 10:32:01;;;;;;;10.13;9.20;;;;;;;25.40;60.62;94911.50;5052716;28;20448;-80
2023/06/01 10:34:47;;;;;;;9.03;7.37;;;;;;;25.07;58.63;94909.94;5052685;28;20854;-79
2023/06/01 10:37:18;;;;;;;8.60;7.07;;;;;;;24.90;58.48;94904.28;5016602;28;20511;-80
2023/06/01 10:39:45;;;;;;;7.00;6.33;;;;;;;24.79;57.08;94902.28;5052386;28;20496;-80
2023/06/01 10:42:38;;;;;;;11.90;7.30;;;;;;;24.67;56.58;94898.66;5017699;28;20519;-80
2023/06/01 10:45:06;;;;;;;9.50;6.77;;;;;;;24.60;57.32;94893.34;5052288;28;20526;-81
2023/06/01 10:47:49;;;;;;;7.23;6.27;;;;;;;24.56;57.17;94889.41;5033961;28;20525;-80
2023/06/01 10:50:20;;;;;;;10.07;6.70;;;;;;;24.47;55.80;94892.59;5052174;28;20469;-80
2023/06/01 10:52:48;;;;;;;6.73;6.10;;;;;;;24.42;57.07;94887.06;5052738;28;20579;-83
2023/06/01 10:55:26;;;;;;;10.30;6.17;;;;;;;24.27;55.40;94892.66;5052181;28;20477;-80
2023/06/01 10:58:13;;;;;;;9.37;6.10;;;;;;;24.17;56.80;94897.66;5052186;28;20850;-80
2023/06/01 11:00:41;;;;;;;12.40;7.07;;;;;;;24.09;59.26;94883.47;5052108;28;20998;-80
2023/06/01 11:03:07;;;;;;;18.07;7.20;;;;;;;24.01;57.63;94890.94;5052268;28;20808;-80
2023/06/01 11:05:42;;;;;;;6.30;5.70;;;;;;;23.86;57.94;94888.53;5052059;28;20934;-81
2023/06/01 11:08:31;;;;;;;7.53;5.00;;;;;;;23.72;57.51;94884.25;5052026;28;20442;-81
2023/06/01 11:11:02;;;;;;;11.33;5.67;;;;;;;23.52;56.98;94889.63;5052163;28;20453;-80
2023/06/01 11:13:31;;;;;;;8.53;5.60;;;;;;;23.38;55.88;94904.88;5052207;28;20484;-81
2023/06/01 11:16:30;;;;;;;11.03;5.50;;;;;;;23.26;56.57;94903.88;5052227;28;20492;-80
2023/06/01 11:19:00;;;;;;;10.50;5.37;;;;;;;23.01;59.13;94916.25;5052256;28;20458;-80
2023/06/01 11:21:29;;;;;;;7.37;6.33;;;;;;;22.52;63.62;94925.41;5051835;28;20459;-80
2023/06/01 11:23:58;;;;;;;16.57;5.97;;;;;;;22.02;66.09;94932.88;5052270;28;20435;-80
2023/06/01 11:26:30;;;;;;;8.60;6.00;;;;;;;21.91;68.16;94936.91;5051872;28;20515;-80
2023/06/01 11:29:06;;;;;;;8.50;5.77;;;;;;;21.75;69.39;94947.94;5052116;28;20447;-82